Time;durP1;ratioP1;P1;durP2;ratioP2;P2;SDS_P1;SDS_P2;PMS_P1;PMS_P2;Temp;Humidity;BMP_temperature;BMP_pressure;BME280_temperature;BME280_humidity;BME280_pressure;Samples;Min_cycle;Max_cycle;Signal;HPM_P1;HPM_P2
2022/04/15 00:00:39;;;;;;;10.10;9.10;;;;;;;10.20;69.27;101372.69;5045500;28;20032;-24
2022/04/15 00:03:07;;;;;;;9.50;8.60;;;;;;;10.19;69.08;101378.81;5047508;28;20021;-24
2022/04/15 00:05:36;;;;;;;8.93;8.05;;;;;;;10.14;69.34;101371.78;5039122;28;20020;-24
2022/04/15 00:08:03;;;;;;;9.13;8.27;;;;;;;10.17;69.18;101377.97;5046210;28;20036;-24
2022/04/15 00:10:28;;;;;;;9.35;8.45;;;;;;;10.13;69.46;101375.31;5043144;28;20037;-24
2022/04/15 00:12:55;;;;;;;10.48;9.35;;;;;;;10.13;69.51;101380.56;5044599;28;20550;-24
2022/04/15 00:15:21;;;;;;;10.25;9.20;;;;;;;10.12;69.67;101375.28;5039052;28;20032;-24
2022/04/15 00:17:46;;;;;;;10.57;9.00;;;;;;;10.11;69.84;101374.41;5030900;28;20388;-24
2022/04/15 00:20:12;;;;;;;10.13;8.70;;;;;;;10.08;69.80;101376.16;5035804;28;20032;-24
2022/04/15 00:22:38;;;;;;;10.13;9.07;;;;;;;10.07;69.46;101371.78;5040505;28;20021;-24
2022/04/15 00:25:04;;;;;;;10.07;9.07;;;;;;;10.05;69.44;101382.31;5043004;28;20037;-24
2022/04/15 00:27:30;;;;;;;10.38;8.90;;;;;;;10.05;69.54;101376.13;5041686;28;20025;-23
2022/04/15 00:29:55;;;;;;;10.20;9.20;;;;;;;10.03;69.36;101378.75;5046925;28;20074;-24
2022/04/15 00:32:21;;;;;;;9.75;8.80;;;;;;;10.02;69.55;101379.66;5043437;28;20043;-24
2022/04/15 00:34:47;;;;;;;11.52;9.15;;;;;;;10.00;69.29;101376.09;5046298;28;20052;-24
2022/04/15 00:37:12;;;;;;;10.40;9.13;;;;;;;9.98;69.59;101372.59;5045352;28;20037;-24
2022/04/15 00:39:45;;;;;;;10.77;9.30;;;;;;;9.95;69.45;101368.19;5044941;28;20481;-24
2022/04/15 00:42:10;;;;;;;12.02;9.23;;;;;;;9.96;69.58;101369.06;5049213;28;20116;-24
2022/04/15 00:44:36;;;;;;;10.40;9.30;;;;;;;9.91;69.11;101358.53;5041771;28;20136;-24
2022/04/15 00:47:08;;;;;;;10.55;9.45;;;;;;;9.90;69.13;101364.66;5040836;28;20766;-23
2022/04/15 00:49:34;;;;;;;11.30;9.43;;;;;;;9.88;69.16;101371.69;5044853;28;20021;-24
2022/04/15 00:52:01;;;;;;;10.38;9.30;;;;;;;9.86;69.00;101365.50;5028659;28;20033;-24
2022/04/15 00:54:29;;;;;;;10.68;9.52;;;;;;;9.84;68.90;101368.13;5032181;28;20025;-24
2022/04/15 00:56:58;;;;;;;10.07;9.05;;;;;;;9.81;68.88;101361.97;5032558;28;20079;-24
2022/04/15 00:59:24;;;;;;;10.55;9.07;;;;;;;9.78;68.99;101368.13;5031662;28;20021;-24
2022/04/15 01:01:50;;;;;;;10.93;9.82;;;;;;;9.75;69.01;101370.72;5013283;28;20029;-24
2022/04/15 01:04:18;;;;;;;10.98;9.88;;;;;;;9.74;68.89;101366.34;5029157;28;20033;-24
2022/04/15 01:06:47;;;;;;;10.35;9.13;;;;;;;9.68;68.84;101355.75;5032729;28;20032;-24
2022/04/15 01:09:13;;;;;;;10.80;9.07;;;;;;;9.67;68.67;101368.03;5026991;28;20024;-24
2022/04/15 01:11:42;;;;;;;11.82;9.98;;;;;;;9.64;68.64;101360.16;5039421;28;20017;-24
2022/04/15 01:14:08;;;;;;;10.25;9.25;;;;;;;9.60;68.47;101364.50;5044878;28;20017;-24
2022/04/15 01:16:34;;;;;;;10.90;9.48;;;;;;;9.58;68.67;101368.88;5042901;28;20040;-25
2022/04/15 01:18:59;;;;;;;10.45;9.35;;;;;;;9.56;68.64;101367.09;5039362;28;20116;-24
2022/04/15 01:21:25;;;;;;;11.15;9.82;;;;;;;9.53;68.20;101362.69;5044680;28;20024;-24
2022/04/15 01:23:51;;;;;;;11.88;10.55;;;;;;;9.51;68.89;101374.97;5041541;28;20397;-23
2022/04/15 01:26:17;;;;;;;11.75;10.63;;;;;;;9.48;68.93;101380.22;5045962;28;20033;-24
2022/04/15 01:28:43;;;;;;;13.32;11.75;;;;;;;9.43;70.07;101371.41;5043556;28;20021;-24
2022/04/15 01:31:08;;;;;;;17.50;13.32;;;;;;;9.42;70.42;101377.53;5040869;28;20080;-24
2022/04/15 01:33:34;;;;;;;14.95;12.25;;;;;;;9.41;70.21;101373.16;5028731;28;20037;-24
2022/04/15 01:35:59;;;;;;;14.70;12.75;;;;;;;9.40;70.86;101379.28;5027590;28;20033;-24
2022/04/15 01:38:25;;;;;;;16.67;13.93;;;;;;;9.39;71.42;101374.88;5030639;28;20475;-24
2022/04/15 01:40:52;;;;;;;18.17;14.55;;;;;;;9.35;71.65;101369.63;5030281;28;20112;-24
2022/04/15 01:43:17;;;;;;;21.42;15.43;;;;;;;9.35;71.60;101374.00;5046979;28;20048;-24
2022/04/15 01:45:43;;;;;;;18.52;16.25;;;;;;;9.34;72.46;101375.72;5042584;28;20490;-24
2022/04/15 01:48:08;;;;;;;20.55;15.50;;;;;;;9.30;72.57;101366.03;5039037;28;20036;-24
2022/04/15 01:50:35;;;;;;;18.25;15.50;;;;;;;9.32;72.33;101366.94;5036933;28;20467;-24
2022/04/15 01:53:00;;;;;;;21.17;16.25;;;;;;;9.28;72.61;101375.69;5027565;28;20041;-24
2022/04/15 01:55:25;;;;;;;19.55;16.77;;;;;;;9.27;72.67;101370.41;5026630;28;20438;-24
2022/04/15 01:57:51;;;;;;;20.13;16.55;;;;;;;9.27;72.86;101376.56;5026004;28;20028;-21
2022/04/15 02:00:17;;;;;;;21.80;17.60;;;;;;;9.28;72.83;101372.19;5028891;28;20100;-24
2022/04/15 02:02:42;;;;;;;22.75;18.42;;;;;;;9.27;72.63;101371.28;5031491;28;20021;-24
2022/04/15 02:05:08;;;;;;;18.02;16.10;;;;;;;9.27;71.84;101371.28;5037178;28;20064;-24
2022/04/15 02:07:33;;;;;;;22.10;16.20;;;;;;;9.24;71.85;101381.81;5034968;28;20513;-23
2022/04/15 02:09:59;;;;;;;18.25;15.35;;;;;;;9.24;71.56;101382.69;5031516;28;20025;-24
2022/04/15 02:12:24;;;;;;;21.67;17.10;;;;;;;9.23;71.46;101383.56;5027052;28;20017;-23
2022/04/15 02:14:50;;;;;;;19.58;16.38;;;;;;;9.22;71.52;101384.44;5028214;28;20113;-24
2022/04/15 02:17:15;;;;;;;23.85;18.13;;;;;;;9.21;71.88;101392.31;5025381;28;20044;-23
2022/04/15 02:19:41;;;;;;;20.73;17.33;;;;;;;9.17;72.21;101387.91;5031001;28;20438;-24
2022/04/15 02:22:06;;;;;;;24.27;18.00;;;;;;;9.18;72.36;101390.53;5027402;28;20033;-24
2022/04/15 02:24:31;;;;;;;21.30;16.95;;;;;;;9.19;71.63;101386.13;5033092;28;20041;-24
2022/04/15 02:26:57;;;;;;;19.05;16.00;;;;;;;9.18;71.36;101389.66;5032125;28;20030;-24
2022/04/15 02:29:23;;;;;;;19.02;16.40;;;;;;;9.14;71.33;101395.75;5038205;28;20017;-24
2022/04/15 02:31:48;;;;;;;21.77;17.20;;;;;;;9.14;71.13;101401.03;5049337;28;20071;-24
2022/04/15 02:34:14;;;;;;;22.40;17.20;;;;;;;9.11;71.30;101402.75;5049664;28;20417;-24
2022/04/15 02:36:39;;;;;;;19.77;16.65;;;;;;;9.10;71.23;101406.25;5044477;28;20053;-24
2022/04/15 02:39:10;;;;;;;20.65;17.13;;;;;;;9.07;71.15;101406.22;5047263;28;20119;-24
2022/04/15 02:41:38;;;;;;;23.05;17.25;;;;;;;9.07;70.82;101423.78;5043941;28;20383;-24
2022/04/15 02:44:09;;;;;;;22.38;17.30;;;;;;;9.05;70.82;101413.25;5048944;28;20528;-24
2022/04/15 02:46:35;;;;;;;22.10;16.10;;;;;;;9.04;70.74;101406.19;5039067;28;20479;-24
2022/04/15 02:49:02;;;;;;;21.67;16.83;;;;;;;9.03;70.57;101403.56;5033344;28;20302;-22
2022/04/15 02:51:28;;;;;;;20.13;16.90;;;;;;;9.00;70.31;101401.75;5039649;28;20083;-24
2022/04/15 02:53:53;;;;;;;19.38;16.33;;;;;;;8.99;70.48;101402.66;5035974;28;20529;-24
2022/04/15 02:56:19;;;;;;;21.00;16.23;;;;;;;8.95;70.78;101406.13;5046596;28;20025;-24
2022/04/15 02:58:44;;;;;;;21.70;16.02;;;;;;;8.93;70.31;101418.34;5047823;28;20067;-24
2022/04/15 03:01:10;;;;;;;18.20;15.55;;;;;;;8.90;70.11;101402.56;5035439;28;20034;-24
2022/04/15 03:03:36;;;;;;;20.92;17.20;;;;;;;8.89;70.30;101413.94;5034137;28;20104;-24
2022/04/15 03:06:02;;;;;;;19.67;16.55;;;;;;;8.84;69.90;101404.25;5031627;28;20025;-24
2022/04/15 03:08:30;;;;;;;21.23;16.17;;;;;;;8.84;70.04;101414.78;5017063;28;20032;-24
2022/04/15 03:10:55;;;;;;;19.25;15.70;;;;;;;8.80;70.11;101423.50;5033570;28;20104;-24
2022/04/15 03:13:21;;;;;;;18.90;15.93;;;;;;;8.76;70.20;101415.56;5031980;28;20129;-23
2022/04/15 03:15:46;;;;;;;21.27;16.33;;;;;;;8.74;70.13;101412.94;5031627;28;20447;-24
2022/04/15 03:18:12;;;;;;;18.50;15.15;;;;;;;8.70;70.25;101414.63;5029809;28;20033;-24
2022/04/15 03:20:37;;;;;;;20.40;16.58;;;;;;;8.69;70.04;101415.50;5029354;28;20021;-24
2022/04/15 03:23:03;;;;;;;23.55;17.10;;;;;;;8.67;69.99;101419.00;5034391;28;20025;-24
2022/04/15 03:25:28;;;;;;;22.30;17.00;;;;;;;8.63;70.01;101425.97;5033950;28;20025;-24
2022/04/15 03:27:53;;;;;;;19.67;16.73;;;;;;;8.62;69.83;101423.31;5033070;28;20018;-24
2022/04/15 03:30:19;;;;;;;24.00;17.42;;;;;;;8.58;70.01;101423.25;5032975;28;20032;-24
2022/04/15 03:32:49;;;;;;;19.48;16.10;;;;;;;8.58;69.90;101433.78;5039366;28;20120;-24
2022/04/15 03:35:16;;;;;;;21.48;18.50;;;;;;;8.53;69.70;101418.78;5031397;28;20203;-24
2022/04/15 03:37:41;;;;;;;23.60;20.02;;;;;;;8.54;69.64;101420.59;5029343;28;20079;-24
2022/04/15 03:40:07;;;;;;;24.70;19.85;;;;;;;8.51;69.81;101416.16;5030363;28;20021;-23
2022/04/15 03:42:50;;;;;;;24.30;18.92;;;;;;;8.49;69.96;101428.41;5029105;28;20040;-24
2022/04/15 03:45:22;;;;;;;25.80;20.30;;;;;;;8.45;70.23;101426.59;5036295;28;20395;-23
2022/04/15 03:47:51;;;;;;;25.75;21.52;;;;;;;8.45;70.32;101421.34;5031908;28;20030;-24
2022/04/15 03:50:17;;;;;;;25.08;21.52;;;;;;;8.41;70.19;101422.19;5032449;28;20378;-24
2022/04/15 03:52:46;;;;;;;27.38;21.17;;;;;;;8.41;69.84;101430.91;5030575;28;20024;-24
2022/04/15 03:55:13;;;;;;;24.33;20.90;;;;;;;8.39;70.05;101423.88;5031770;28;20523;-24
2022/04/15 03:57:39;;;;;;;21.73;18.92;;;;;;;8.36;69.84;101427.38;5030727;28;20087;-24
2022/04/15 04:00:09;;;;;;;24.27;19.40;;;;;;;8.34;69.77;101437.84;5039554;28;20425;-24
2022/04/15 04:02:35;;;;;;;22.50;18.97;;;;;;;8.31;69.75;101440.44;5031248;28;20104;-24
2022/04/15 04:05:01;;;;;;;25.17;20.02;;;;;;;8.29;69.93;101442.19;5031739;28;20627;-24
2022/04/15 04:07:26;;;;;;;21.42;19.13;;;;;;;8.28;69.87;101444.78;5033634;28;20028;-20
2022/04/15 04:09:52;;;;;;;21.30;18.98;;;;;;;8.26;70.38;101436.88;5033413;28;20926;-24
2022/04/15 04:12:17;;;;;;;22.60;19.85;;;;;;;8.27;70.46;101450.91;5046266;28;20083;-24
2022/04/15 04:14:43;;;;;;;22.65;18.25;;;;;;;8.24;70.66;101443.00;5046494;28;20029;-24
2022/04/15 04:17:08;;;;;;;22.27;18.27;;;;;;;8.25;71.35;101456.16;5037655;28;20159;-23
2022/04/15 04:19:34;;;;;;;21.90;17.75;;;;;;;8.24;71.65;101464.91;5043596;28;20028;-24
2022/04/15 04:21:59;;;;;;;23.75;16.52;;;;;;;8.23;71.69;101462.25;5032257;28;20475;-20
2022/04/15 04:24:25;;;;;;;19.45;16.85;;;;;;;8.24;71.58;101464.91;5029712;28;20030;-23
2022/04/15 04:26:50;;;;;;;18.17;16.10;;;;;;;8.25;71.94;101464.03;5031119;28;20021;-24
2022/04/15 04:29:16;;;;;;;21.27;16.48;;;;;;;8.23;71.64;101465.75;5028929;28;20029;-24
2022/04/15 04:31:42;;;;;;;18.70;16.23;;;;;;;8.24;72.06;101470.16;5033642;28;20025;-24
2022/04/15 04:34:08;;;;;;;19.90;16.30;;;;;;;8.25;71.73;101474.56;5031697;28;20029;-23
2022/04/15 04:36:33;;;;;;;17.58;14.82;;;;;;;8.23;72.14;101476.25;5029757;28;20064;-24
2022/04/15 04:38:59;;;;;;;17.17;14.68;;;;;;;8.25;72.46;101477.19;5031587;28;20037;-24
2022/04/15 04:41:24;;;;;;;17.60;15.05;;;;;;;8.23;72.35;101481.50;5029319;28;20029;-24
2022/04/15 04:43:50;;;;;;;14.77;13.13;;;;;;;8.26;72.29;101478.03;5031384;28;20557;-24
2022/04/15 04:46:15;;;;;;;16.92;13.52;;;;;;;8.26;72.72;101494.69;5030493;28;20068;-24
2022/04/15 04:48:41;;;;;;;15.88;14.02;;;;;;;8.25;72.84;101489.41;5034901;28;20029;-23
2022/04/15 04:51:08;;;;;;;16.58;12.23;;;;;;;8.25;73.02;101506.09;5034680;28;20056;-23
2022/04/15 04:53:33;;;;;;;15.02;12.52;;;;;;;8.27;72.84;101501.72;5043133;28;20037;-24
2022/04/15 04:55:59;;;;;;;14.77;12.07;;;;;;;8.29;73.16;101507.00;5044423;28;20112;-24
2022/04/15 04:58:24;;;;;;;14.68;11.77;;;;;;;8.26;73.60;101517.47;5045226;28;20390;-24
2022/04/15 05:00:50;;;;;;;14.85;11.73;;;;;;;8.26;73.02;101525.34;5035498;28;20029;-24
2022/04/15 05:03:15;;;;;;;12.38;10.48;;;;;;;8.29;73.05;101523.66;5045076;28;20641;-24
2022/04/15 05:05:41;;;;;;;12.57;11.27;;;;;;;8.29;72.81;101531.56;5038562;28;20465;-24
2022/04/15 05:08:06;;;;;;;14.23;10.75;;;;;;;8.30;73.16;101533.31;5034764;28;20478;-23
2022/04/15 05:10:32;;;;;;;13.18;10.65;;;;;;;8.30;72.84;101543.81;5028322;28;20022;-23
2022/04/15 05:12:59;;;;;;;11.95;10.60;;;;;;;8.31;73.18;101542.94;5033406;28;20396;-24
2022/04/15 05:15:24;;;;;;;14.90;10.80;;;;;;;8.31;72.86;101542.94;5034925;28;20261;-23
2022/04/15 05:17:50;;;;;;;12.13;10.25;;;;;;;8.32;73.13;101551.72;5027112;28;20110;-24
2022/04/15 05:20:15;;;;;;;10.23;9.10;;;;;;;8.32;72.83;101546.47;5034345;28;20045;-24
2022/04/15 05:22:41;;;;;;;13.75;10.82;;;;;;;8.32;72.69;101552.63;5037176;28;20487;-24
2022/04/15 05:25:07;;;;;;;13.45;10.20;;;;;;;8.32;72.64;101551.72;5043191;28;20093;-23
2022/04/15 05:27:32;;;;;;;11.18;10.05;;;;;;;8.33;72.55;101557.00;5037698;28;20033;-24
2022/04/15 05:29:57;;;;;;;10.52;9.20;;;;;;;8.33;72.81;101558.75;5041715;28;20119;-23
2022/04/15 05:32:23;;;;;;;13.77;9.10;;;;;;;8.34;73.10;101556.16;5038197;28;20105;-24
2022/04/15 05:34:49;;;;;;;10.48;8.75;;;;;;;8.34;73.03;101564.03;5037832;28;20124;-23
2022/04/15 05:37:14;;;;;;;11.05;8.25;;;;;;;8.33;73.12;101567.53;5037857;28;20378;-24
2022/04/15 05:39:40;;;;;;;14.07;9.05;;;;;;;8.33;72.94;101564.91;5032122;28;20033;-24
2022/04/15 05:42:06;;;;;;;11.30;8.57;;;;;;;8.36;72.96;101573.72;5037088;28;20017;-23
2022/04/15 05:44:32;;;;;;;10.40;8.40;;;;;;;8.36;72.87;101574.56;5038592;28;20387;-23
2022/04/15 05:46:57;;;;;;;11.27;8.85;;;;;;;8.33;73.07;101570.16;5042084;28;20035;-23
2022/04/15 05:49:24;;;;;;;13.70;8.85;;;;;;;8.35;72.52;101580.69;5042640;28;20035;-24
2022/04/15 05:51:50;;;;;;;10.30;8.25;;;;;;;8.36;72.80;101579.81;5037883;28;20029;-24
2022/04/15 05:54:15;;;;;;;10.68;8.48;;;;;;;8.37;72.66;101580.72;5035940;28;20025;-23
2022/04/15 05:56:41;;;;;;;12.02;8.32;;;;;;;8.38;72.61;101582.47;5040111;28;20087;-24
2022/04/15 05:59:07;;;;;;;10.98;9.15;;;;;;;8.39;72.77;101590.41;5017644;28;20025;-23
2022/04/15 06:01:32;;;;;;;12.88;8.77;;;;;;;8.40;73.02;101591.28;5036177;28;20022;-24
2022/04/15 06:03:58;;;;;;;8.50;7.43;;;;;;;8.39;73.16;101589.50;5029019;28;20021;-24
2022/04/15 06:06:23;;;;;;;9.68;8.18;;;;;;;8.39;73.21;101595.66;5030860;28;20055;-24
2022/04/15 06:08:49;;;;;;;10.07;7.38;;;;;;;8.40;73.29;101601.81;5038068;28;20026;-26
2022/04/15 06:11:14;;;;;;;11.20;7.95;;;;;;;8.41;73.23;101603.56;5046020;28;20033;-24
2022/04/15 06:13:46;;;;;;;9.68;7.63;;;;;;;8.40;73.40;101605.28;5033370;28;20288;-23
2022/04/15 06:16:16;;;;;;;9.45;7.68;;;;;;;8.42;73.41;101615.84;5034415;28;20066;-24
2022/04/15 06:18:42;;;;;;;11.48;7.45;;;;;;;8.43;73.42;101610.59;5044320;28;20017;-24
2022/04/15 06:21:08;;;;;;;9.48;7.68;;;;;;;8.43;73.26;101617.59;5046961;28;20028;-24
2022/04/15 06:23:33;;;;;;;8.82;7.38;;;;;;;8.44;73.45;101614.13;5042504;28;20100;-23
2022/04/15 06:25:59;;;;;;;11.23;8.23;;;;;;;8.44;73.50;101614.13;5038242;28;20024;-24
2022/04/15 06:28:24;;;;;;;10.75;7.82;;;;;;;8.45;73.64;101614.16;5044880;28;20037;-24
2022/04/15 06:30:50;;;;;;;8.00;7.18;;;;;;;8.45;73.59;101622.03;5034825;28;20045;-24
2022/04/15 06:33:16;;;;;;;9.15;7.32;;;;;;;8.46;73.78;101628.16;5026510;28;20120;-24
2022/04/15 06:35:42;;;;;;;7.65;6.50;;;;;;;8.45;73.67;101622.03;5028012;28;20065;-24
2022/04/15 06:38:08;;;;;;;9.00;7.15;;;;;;;8.45;73.40;101626.41;5026982;28;20060;-24
2022/04/15 06:40:35;;;;;;;10.43;7.32;;;;;;;8.47;73.87;101640.44;5028841;28;20459;-24
2022/04/15 06:43:01;;;;;;;9.65;7.57;;;;;;;8.47;73.77;101640.44;5027273;28;20037;-24
2022/04/15 06:45:26;;;;;;;9.65;7.28;;;;;;;8.49;73.52;101641.38;5028630;28;20039;-23
2022/04/15 06:47:52;;;;;;;8.48;7.60;;;;;;;8.49;73.47;101644.00;5029142;28;20030;-24
2022/04/15 06:50:19;;;;;;;7.97;7.07;;;;;;;8.48;73.72;101637.84;5036201;28;20382;-24
2022/04/15 06:52:44;;;;;;;14.10;7.57;;;;;;;8.51;73.47;101641.38;5038486;28;20017;-24
2022/04/15 06:55:10;;;;;;;10.40;7.53;;;;;;;8.50;73.73;101643.13;5040125;28;20032;-24
2022/04/15 06:57:36;;;;;;;8.45;6.90;;;;;;;8.52;73.70;101632.63;5040966;28;20025;-24
2022/04/15 07:00:03;;;;;;;8.15;6.85;;;;;;;8.53;73.89;101647.53;5046115;28;20079;-24
2022/04/15 07:02:28;;;;;;;9.85;7.35;;;;;;;8.54;74.10;101636.22;5039804;28;20164;-24
2022/04/15 07:04:54;;;;;;;8.02;6.70;;;;;;;8.55;73.86;101633.63;5035278;28;20401;-24
2022/04/15 07:07:19;;;;;;;7.65;6.90;;;;;;;8.55;73.76;101628.34;5031261;28;20033;-24
2022/04/15 07:09:44;;;;;;;7.78;6.97;;;;;;;8.57;74.64;101637.13;5033953;28;20021;-24
2022/04/15 07:12:10;;;;;;;7.82;7.03;;;;;;;8.60;74.73;101631.91;5040834;28;20040;-23
2022/04/15 07:14:36;;;;;;;7.75;6.90;;;;;;;8.61;74.68;101630.19;5047503;28;20052;-24
2022/04/15 07:17:02;;;;;;;7.18;6.32;;;;;;;8.62;74.33;101628.41;5049844;28;20486;-24
2022/04/15 07:19:27;;;;;;;9.18;6.57;;;;;;;8.64;74.37;101629.34;5050111;28;20052;-24
2022/04/15 07:21:53;;;;;;;8.30;6.03;;;;;;;8.66;74.21;101631.13;5032328;28;20099;-24
2022/04/15 07:24:20;;;;;;;9.35;7.18;;;;;;;8.68;74.21;101633.78;5032316;28;20040;-23
2022/04/15 07:26:45;;;;;;;9.25;6.60;;;;;;;8.70;74.40;101632.03;5036757;28;20056;-23
2022/04/15 07:29:11;;;;;;;8.85;7.10;;;;;;;8.70;74.75;101642.56;5032171;28;20498;-24
2022/04/15 07:31:36;;;;;;;6.95;6.25;;;;;;;8.70;74.96;101642.56;5037878;28;20041;-24
2022/04/15 07:34:03;;;;;;;7.55;6.28;;;;;;;8.73;74.92;101643.50;5033741;28;20018;-24
2022/04/15 07:39:05;;;;;;;6.78;5.57;;;;;;;8.77;74.68;101646.19;5031461;28;20048;-24
2022/04/15 07:41:31;;;;;;;6.55;5.93;;;;;;;8.79;74.83;101647.97;5034659;28;20032;-24
2022/04/15 07:43:56;;;;;;;6.93;5.15;;;;;;;8.82;74.90;101648.03;5036160;28;20467;-23
2022/04/15 07:46:22;;;;;;;5.63;5.07;;;;;;;8.83;74.26;101651.50;5029256;28;20541;-21
2022/04/15 07:48:47;;;;;;;6.30;5.32;;;;;;;8.83;74.26;101649.78;5030829;28;20021;-24
2022/04/15 07:51:13;;;;;;;7.30;5.60;;;;;;;8.85;74.61;101653.31;5033310;28;20033;-24
2022/04/15 07:53:38;;;;;;;5.22;4.38;;;;;;;8.88;74.30;101656.84;5030189;28;20045;-24
2022/04/15 07:56:04;;;;;;;6.68;5.53;;;;;;;8.89;74.44;101661.25;5034346;28;20025;-24
2022/04/15 07:58:31;;;;;;;8.35;5.13;;;;;;;8.90;74.35;101670.91;5045710;28;20044;-24
2022/04/15 08:01:00;;;;;;;5.55;5.03;;;;;;;8.91;74.36;101672.69;5045233;28;20017;-22
2022/04/15 08:03:26;;;;;;;7.93;5.47;;;;;;;8.91;74.28;101672.69;5042291;28;20041;-22
2022/04/15 08:05:53;;;;;;;4.85;4.40;;;;;;;8.93;74.39;101678.84;5040367;28;20026;-23
2022/04/15 08:08:18;;;;;;;6.75;4.53;;;;;;;8.94;74.10;101678.00;5036772;28;20021;-24
2022/04/15 08:10:44;;;;;;;5.50;4.90;;;;;;;8.97;74.24;101683.31;5031982;28;20108;-24
2022/04/15 08:13:10;;;;;;;5.25;4.70;;;;;;;8.96;73.96;101682.41;5033724;28;20026;-24
2022/04/15 08:15:35;;;;;;;4.90;4.32;;;;;;;8.99;74.12;101686.81;5031668;28;20045;-24
2022/04/15 08:18:01;;;;;;;5.57;4.95;;;;;;;9.01;74.35;101690.38;5032901;28;20613;-23
2022/04/15 08:20:26;;;;;;;5.53;5.00;;;;;;;9.00;74.69;101692.97;5040581;28;20429;-23
2022/04/15 08:22:52;;;;;;;5.60;5.03;;;;;;;9.01;74.54;101694.75;5030796;28;20028;-24
2022/04/15 08:25:17;;;;;;;5.18;4.63;;;;;;;9.01;74.55;101708.78;5047399;28;20391;-24
2022/04/15 08:27:43;;;;;;;5.28;4.78;;;;;;;9.03;74.85;101696.53;5048129;28;20082;-24
2022/04/15 08:30:08;;;;;;;5.78;5.18;;;;;;;9.05;74.52;101700.06;5044138;28;20543;-24
2022/04/15 08:32:34;;;;;;;5.75;5.00;;;;;;;9.06;74.73;101704.47;5035028;28;20033;-24
2022/04/15 08:35:04;;;;;;;6.70;5.20;;;;;;;9.06;74.19;101695.69;5030983;28;20492;-24
2022/04/15 08:37:29;;;;;;;5.70;5.18;;;;;;;9.06;74.50;101691.31;5031105;28;20053;-24
2022/04/15 08:39:55;;;;;;;6.32;5.15;;;;;;;9.07;74.46;101685.16;5030819;28;20107;-24
2022/04/15 08:42:21;;;;;;;5.40;4.68;;;;;;;9.10;73.80;101690.47;5044679;28;20025;-24
2022/04/15 08:44:51;;;;;;;5.50;5.00;;;;;;;9.14;73.96;101701.06;5045774;28;20029;-23
2022/04/15 08:47:17;;;;;;;5.95;5.10;;;;;;;9.17;73.81;101695.84;5046988;28;20079;-24
2022/04/15 08:49:42;;;;;;;6.07;5.32;;;;;;;9.17;74.08;101701.97;5044172;28;20017;-24
2022/04/15 08:52:13;;;;;;;6.15;5.53;;;;;;;9.18;73.55;101705.50;5031220;28;20032;-24
2022/04/15 08:54:38;;;;;;;6.13;4.78;;;;;;;9.20;73.50;101699.38;5031035;28;20025;-23
2022/04/15 08:57:05;;;;;;;5.90;4.63;;;;;;;9.23;73.43;101706.44;5033625;28;20394;-23
2022/04/15 08:59:31;;;;;;;5.18;4.68;;;;;;;9.24;74.08;101703.81;5037630;28;20025;-24
2022/04/15 09:01:56;;;;;;;5.55;4.90;;;;;;;9.26;73.75;101710.84;5030371;28;20026;-24
2022/04/15 09:04:22;;;;;;;5.85;5.07;;;;;;;9.29;73.22;101710.88;5030907;28;20025;-23
2022/04/15 09:07:01;;;;;;;6.53;5.00;;;;;;;9.32;73.46;101711.84;5037078;28;20052;-24
2022/04/15 09:09:31;;;;;;;5.22;4.72;;;;;;;9.35;73.09;101703.09;5031148;28;20091;-24
2022/04/15 09:12:03;;;;;;;5.28;4.45;;;;;;;9.37;73.44;101712.75;5044753;28;20022;-24
2022/04/15 09:14:28;;;;;;;6.18;5.15;;;;;;;9.40;73.11;101714.53;5047285;28;20035;-23
2022/04/15 09:16:54;;;;;;;6.72;4.93;;;;;;;9.40;73.35;101722.44;5044351;28;20581;-23
2022/04/15 09:19:20;;;;;;;5.53;4.65;;;;;;;9.44;73.49;101726.03;5049502;28;20032;-24
2022/04/15 09:21:52;;;;;;;5.57;4.72;;;;;;;9.49;72.73;101724.31;5047620;28;20375;-24
2022/04/15 09:24:30;;;;;;;4.78;4.38;;;;;;;9.52;73.29;101719.09;5038258;28;20238;-24
2022/04/15 09:26:56;;;;;;;4.95;4.43;;;;;;;9.55;72.96;101726.13;5044197;28;20359;-24
2022/04/15 09:29:24;;;;;;;4.60;3.97;;;;;;;9.58;73.21;101729.72;5044027;28;20040;-22
2022/04/15 09:31:54;;;;;;;6.50;4.30;;;;;;;9.60;72.60;101732.34;5030543;28;20026;-25
2022/04/15 09:34:19;;;;;;;4.07;3.60;;;;;;;9.62;72.41;101731.50;5034406;28;20105;-24
2022/04/15 09:36:47;;;;;;;6.90;4.70;;;;;;;9.67;72.17;101733.31;5027168;28;20442;-25
2022/04/15 09:39:16;;;;;;;6.28;4.28;;;;;;;9.68;72.56;101740.34;5029766;28;20029;-24
2022/04/15 09:41:51;;;;;;;6.30;4.40;;;;;;;9.72;72.02;101739.50;5030146;28;20029;-25
2022/04/15 09:44:16;;;;;;;6.55;4.43;;;;;;;9.72;72.36;101743.03;5027484;28;20127;-24
2022/04/15 09:46:44;;;;;;;4.68;4.13;;;;;;;9.75;71.97;101732.53;5032599;28;20629;-25
2022/04/15 09:49:11;;;;;;;5.75;4.45;;;;;;;9.77;72.20;101742.22;5030605;28;20607;-24
2022/04/15 09:51:44;;;;;;;6.13;5.18;;;;;;;9.79;72.15;101738.72;5029672;28;20025;-25
2022/04/15 09:54:23;;;;;;;5.25;4.72;;;;;;;9.84;71.92;101746.69;5033317;28;20445;-25
2022/04/15 09:56:50;;;;;;;5.07;4.57;;;;;;;9.85;71.62;101745.81;5031961;28;20109;-25
2022/04/15 09:59:16;;;;;;;5.25;4.63;;;;;;;9.87;71.44;101754.63;5032074;28;20029;-25
2022/04/15 10:01:46;;;;;;;5.57;5.07;;;;;;;9.90;71.64;101752.00;5030136;28;20541;-24
2022/04/15 10:04:13;;;;;;;5.18;4.55;;;;;;;9.94;71.50;101752.94;5028672;28;20029;-25
2022/04/15 10:06:40;;;;;;;5.57;5.03;;;;;;;9.96;71.51;101756.47;5032991;28;20033;-24
2022/04/15 10:09:09;;;;;;;6.47;5.75;;;;;;;9.99;71.64;101762.66;5035001;28;20029;-25
2022/04/15 10:11:35;;;;;;;7.10;5.78;;;;;;;10.03;71.60;101750.38;5043524;28;20013;-24
2022/04/15 10:14:03;;;;;;;6.05;5.45;;;;;;;10.07;71.42;101754.81;5035945;28;20390;-24
2022/04/15 10:16:30;;;;;;;6.22;5.63;;;;;;;10.11;71.22;101751.34;5030024;28;20068;-24
2022/04/15 10:18:59;;;;;;;6.82;6.15;;;;;;;10.14;71.37;101755.78;5026995;28;20406;-25
2022/04/15 10:21:25;;;;;;;7.55;6.10;;;;;;;10.19;70.93;101750.53;5042444;28;20112;-25
2022/04/15 10:23:51;;;;;;;7.53;6.25;;;;;;;10.22;71.05;101747.94;5045192;28;20108;-25
2022/04/15 10:26:19;;;;;;;6.55;5.95;;;;;;;10.25;71.35;101747.97;5049716;28;20096;-25
2022/04/15 10:28:47;;;;;;;6.95;5.95;;;;;;;10.28;70.90;101745.38;5041936;28;20095;-24
2022/04/15 10:31:16;;;;;;;7.78;6.43;;;;;;;10.35;71.70;101752.47;5047494;28;20036;-24
2022/04/15 10:33:43;;;;;;;7.13;6.20;;;;;;;10.42;71.15;101749.88;5044070;28;20033;-25
2022/04/15 10:36:21;;;;;;;7.43;6.72;;;;;;;10.44;71.37;101742.88;5048469;28;20031;-24
2022/04/15 10:39:02;;;;;;;6.95;5.88;;;;;;;10.51;71.11;101750.00;5048240;28;20549;-25
2022/04/15 10:41:28;;;;;;;8.45;6.28;;;;;;;10.54;71.07;101755.31;5039033;28;20025;-25
2022/04/15 10:43:58;;;;;;;7.35;6.43;;;;;;;10.61;70.85;101759.75;5044242;28;20025;-25
2022/04/15 10:46:30;;;;;;;6.78;6.00;;;;;;;10.68;70.67;101751.88;5044238;28;20037;-25
2022/04/15 10:49:00;;;;;;;6.82;6.20;;;;;;;10.71;70.70;101754.56;5048626;28;20024;-25
2022/04/15 10:51:30;;;;;;;6.03;5.47;;;;;;;10.76;70.27;101758.09;5051234;28;20053;-25
2022/04/15 10:54:16;;;;;;;6.80;6.10;;;;;;;10.80;69.82;101751.97;5046130;28;20029;-25
2022/04/15 10:57:17;;;;;;;6.15;5.55;;;;;;;10.85;69.75;101763.47;5049724;28;20052;-24
2022/04/15 11:02:48;;;;;;;6.10;5.60;;;;;;;10.89;69.36;101749.41;5030841;28;20105;-25
2022/04/15 11:05:36;;;;;;;6.43;5.80;;;;;;;10.93;69.54;101754.72;5032978;28;20052;-25
2022/04/15 11:08:06;;;;;;;6.25;5.40;;;;;;;10.94;69.41;101759.97;5022965;28;20036;-25
2022/04/15 11:10:48;;;;;;;5.77;5.17;;;;;;;10.98;69.17;101760.91;5041635;28;20563;-24
2022/04/15 11:13:28;;;;;;;;;;;;;;;11.00;68.87;101765.31;5047425;28;20079;-25
2022/04/15 11:15:57;;;;;;;6.33;5.67;;;;;;;10.99;69.30;101763.56;5042002;28;19943;-25
2022/04/15 11:18:23;;;;;;;7.10;5.93;;;;;;;11.00;69.37;101762.66;5049276;28;20549;-25
2022/04/15 11:20:49;;;;;;;6.10;5.50;;;;;;;11.03;68.69;101769.72;5038072;28;20025;-25
2022/04/15 11:23:15;;;;;;;7.30;6.60;;;;;;;11.03;69.03;101769.72;5034689;28;20387;-24
2022/04/15 11:25:44;;;;;;;7.15;6.35;;;;;;;11.04;68.95;101768.88;5038682;28;20033;-25
2022/04/15 11:28:09;;;;;;;9.13;7.63;;;;;;;11.06;68.77;101776.78;5035757;28;20112;-25